createdAt,value
2018-06-08T00:00:59.365Z,83.00
2018-06-08T00:01:59.345Z,82.81
2018-06-08T00:02:59.338Z,83.00
2018-06-08T00:03:59.337Z,83.09
2018-06-08T00:04:59.330Z,83.00
2018-06-08T00:05:59.394Z,83.00
2018-06-08T00:06:59.318Z,83.09
2018-06-08T00:07:59.284Z,83.29
2018-06-08T00:08:59.278Z,83.58
2018-06-08T00:09:59.285Z,83.58
2018-06-08T00:11:07.608Z,83.39
2018-06-08T00:12:07.649Z,84.25
2018-06-08T00:13:07.697Z,83.72
2018-06-08T00:13:59.215Z,83.86
2018-06-08T00:14:59.205Z,84.06
2018-06-08T00:15:59.215Z,84.06
2018-06-08T00:17:07.230Z,84.25
2018-06-08T00:18:07.275Z,83.77
2018-06-08T00:18:59.157Z,83.86
2018-06-08T00:19:59.149Z,84.06
2018-06-08T00:20:59.162Z,84.06
2018-06-08T00:21:59.127Z,84.06
2018-06-08T00:22:59.112Z,84.34
2018-06-08T00:23:59.106Z,83.58
2018-06-08T00:24:59.090Z,84.06
2018-06-08T00:25:59.103Z,84.06
2018-06-08T00:26:59.088Z,83.39
2018-06-08T00:27:59.066Z,83.67
2018-06-08T00:28:59.047Z,83.42
2018-06-08T00:29:59.045Z,83.39
2018-06-08T00:30:59.027Z,83.00
2018-06-08T00:31:59.027Z,82.71
2018-06-08T00:32:59.024Z,82.81
2018-06-08T00:33:58.995Z,82.90
2018-06-08T00:34:58.980Z,82.61
2018-06-08T00:35:58.973Z,82.42
2018-06-08T00:36:58.963Z,83.19
2018-06-08T00:37:58.963Z,83.09
2018-06-08T00:38:58.939Z,83.19
2018-06-08T00:39:58.925Z,82.32
2018-06-08T00:40:58.913Z,82.81
2018-06-08T00:41:58.912Z,82.52
2018-06-08T00:42:58.904Z,82.52
2018-06-08T00:43:58.880Z,82.56
2018-06-08T00:44:58.875Z,82.61
2018-06-08T00:45:58.854Z,82.61
2018-06-08T00:46:58.847Z,82.71
2018-06-08T00:47:58.855Z,82.14
2018-06-08T00:48:58.824Z,82.04
2018-06-08T00:49:58.811Z,82.14
2018-06-08T00:50:58.801Z,82.61
2018-06-08T00:51:58.793Z,82.42
2018-06-08T00:52:58.772Z,82.14
2018-06-08T00:53:58.787Z,82.04
2018-06-08T00:54:58.762Z,81.94
2018-06-08T00:55:58.745Z,81.84
2018-06-08T00:56:58.737Z,82.04
2018-06-08T00:57:58.725Z,82.23
2018-06-08T00:58:58.712Z,82.04
2018-06-08T00:59:58.734Z,82.04
2018-06-08T01:00:58.687Z,82.04
2018-06-08T01:01:58.681Z,82.14
2018-06-08T01:02:58.666Z,82.61
2018-06-08T01:03:58.658Z,82.14
2018-06-08T01:04:58.665Z,82.23
2018-06-08T01:05:58.642Z,81.94
2018-06-08T01:06:58.645Z,82.14
2018-06-08T01:07:58.608Z,81.84
2018-06-08T01:08:58.603Z,82.04
2018-06-08T01:10:12.818Z,82.14
2018-06-08T01:10:58.574Z,81.75
2018-06-08T01:11:58.573Z,81.84
2018-06-08T01:12:58.558Z,81.84
2018-06-08T01:13:58.545Z,81.75
2018-06-08T01:14:58.550Z,81.65
2018-06-08T01:15:58.525Z,82.32
2018-06-08T01:16:58.522Z,82.23
2018-06-08T01:17:58.501Z,82.04
2018-06-08T01:18:58.488Z,82.61
2018-06-08T01:19:58.501Z,82.23
2018-06-08T01:20:58.490Z,82.32
2018-06-08T01:21:58.461Z,82.61
2018-06-08T01:22:58.443Z,82.61
2018-06-08T01:23:58.433Z,82.61
2018-06-08T01:24:58.428Z,82.90
2018-06-08T01:25:58.412Z,82.52
2018-06-08T01:26:58.427Z,83.00
2018-06-08T01:27:58.392Z,82.23
2018-06-08T01:28:58.387Z,82.61
2018-06-08T01:29:58.368Z,82.37
2018-06-08T01:30:58.351Z,82.46
2018-06-08T01:31:58.356Z,82.52
2018-06-08T01:32:58.351Z,82.56
2018-06-08T01:33:58.315Z,82.61
2018-06-08T01:34:58.308Z,82.32
2018-06-08T01:35:58.298Z,82.14
2018-06-08T01:36:58.289Z,81.65
2018-06-08T01:37:58.288Z,81.75
2018-06-08T01:38:58.260Z,81.56
2018-06-08T01:39:58.261Z,81.65
2018-06-08T01:40:58.244Z,81.56
2018-06-08T01:41:58.238Z,81.94
2018-06-08T01:42:58.240Z,81.88
2018-06-08T01:43:58.215Z,81.56
2018-06-08T01:44:58.203Z,81.65
2018-06-08T01:45:58.184Z,81.65
2018-06-08T01:46:58.188Z,81.46
2018-06-08T01:47:58.170Z,81.75
2018-06-08T01:48:58.197Z,81.65
2018-06-08T01:49:58.148Z,81.17
2018-06-08T01:50:58.133Z,81.27
2018-06-08T01:51:58.122Z,81.17
2018-06-08T01:52:58.118Z,80.98
2018-06-08T01:53:58.102Z,81.65
2018-06-08T01:54:58.107Z,81.07
2018-06-08T01:55:58.080Z,81.17
2018-06-08T01:56:58.064Z,81.37
2018-06-08T01:57:58.064Z,81.37
2018-06-08T01:58:58.067Z,81.27
2018-06-08T01:59:58.037Z,80.50
2018-06-08T02:00:58.082Z,80.88
2018-06-08T02:01:58.028Z,80.69
2018-06-08T02:02:58.007Z,80.88
2018-06-08T02:03:58.008Z,80.79
2018-06-08T02:04:57.985Z,80.60
2018-06-08T02:06:05.502Z,80.79
2018-06-08T02:07:06.374Z,80.98
2018-06-08T02:08:06.420Z,80.79
2018-06-08T02:08:57.936Z,80.79
2018-06-08T02:10:05.952Z,80.79
2018-06-08T02:11:05.988Z,80.69
2018-06-08T02:12:06.443Z,80.79
2018-06-08T02:12:57.889Z,80.60
2018-06-08T02:13:57.877Z,80.69
2018-06-08T02:14:57.884Z,80.88
2018-06-08T02:15:57.880Z,80.88
2018-06-08T02:16:57.866Z,80.98
2018-06-08T02:17:57.836Z,80.50
2018-06-08T02:18:57.824Z,80.88
2018-06-08T02:19:57.821Z,81.07
2018-06-08T02:20:57.819Z,81.07
2018-06-08T02:21:57.793Z,80.40
2018-06-08T02:22:57.795Z,80.60
2018-06-08T02:23:57.771Z,80.60
2018-06-08T02:24:57.755Z,80.60
2018-06-08T02:25:57.760Z,80.02
2018-06-08T02:26:57.748Z,80.30
2018-06-08T02:27:57.735Z,80.30
2018-06-08T02:28:57.733Z,80.69
2018-06-08T02:29:57.704Z,80.88
2018-06-08T02:30:57.706Z,80.40
2018-06-08T02:31:57.681Z,80.11
2018-06-08T02:32:57.667Z,80.11
2018-06-08T02:33:57.658Z,80.11
2018-06-08T02:34:57.644Z,80.21
2018-06-08T02:35:57.651Z,79.92
2018-06-08T02:36:57.622Z,80.30
2018-06-08T02:37:57.618Z,80.50
2018-06-08T02:38:57.625Z,80.21
2018-06-08T02:39:57.593Z,80.98
2018-06-08T02:40:57.587Z,80.40
2018-06-08T02:41:57.589Z,80.02
2018-06-08T02:42:57.561Z,80.11
2018-06-08T02:43:57.568Z,80.40
2018-06-08T02:44:57.538Z,80.30
2018-06-08T02:45:57.521Z,80.30
2018-06-08T02:46:57.516Z,80.30
2018-06-08T02:47:57.504Z,80.21
2018-06-08T02:48:57.512Z,80.11
2018-06-08T02:49:57.483Z,80.11
2018-06-08T02:50:57.480Z,79.92
2018-06-08T02:51:57.457Z,80.30
2018-06-08T02:52:57.453Z,80.40
2018-06-08T02:53:57.458Z,80.11
2018-06-08T02:54:57.435Z,80.40
2018-06-08T02:55:57.412Z,79.92
2018-06-08T02:56:57.420Z,80.60
2018-06-08T02:57:57.393Z,80.40
2018-06-08T02:58:57.402Z,80.30
2018-06-08T02:59:57.375Z,80.69
2018-06-08T03:00:57.363Z,79.82
2018-06-08T03:01:57.348Z,79.73
2018-06-08T03:02:57.343Z,79.82
2018-06-08T03:03:57.355Z,79.73
2018-06-08T03:04:57.320Z,79.82
2018-06-08T03:05:57.313Z,80.02
2018-06-08T03:06:57.298Z,80.02
2018-06-08T03:07:57.285Z,80.11
2018-06-08T03:08:57.278Z,79.82
2018-06-08T03:09:57.284Z,80.11
2018-06-08T03:10:57.256Z,80.21
2018-06-08T03:11:57.243Z,79.82
2018-06-08T03:12:57.235Z,79.82
2018-06-08T03:13:57.223Z,80.11
2018-06-08T03:14:57.233Z,79.82
2018-06-08T03:15:57.199Z,79.92
2018-06-08T03:16:57.190Z,79.73
2018-06-08T03:17:57.186Z,79.63
2018-06-08T03:18:57.160Z,79.63
2018-06-08T03:19:57.169Z,79.92
2018-06-08T03:20:57.146Z,79.73
2018-06-08T03:21:57.150Z,79.82
2018-06-08T03:22:57.150Z,79.53
2018-06-08T03:23:57.111Z,79.63
2018-06-08T03:24:57.096Z,79.44
2018-06-08T03:25:57.105Z,79.63
2018-06-08T03:26:57.081Z,79.53
2018-06-08T03:27:57.088Z,80.30
2018-06-08T03:28:57.056Z,80.46
2018-06-08T03:29:57.062Z,80.11
2018-06-08T03:30:57.054Z,80.98
2018-06-08T03:31:57.039Z,80.40
2018-06-08T03:32:57.061Z,80.40
2018-06-08T03:33:57.002Z,81.71
2018-06-08T03:34:56.999Z,81.61
2018-06-08T03:35:57.048Z,81.52
2018-06-08T03:36:56.979Z,81.32
2018-06-08T03:37:56.959Z,80.88
2018-06-08T03:38:56.965Z,80.88
2018-06-08T03:39:56.947Z,80.79
2018-06-08T03:40:56.935Z,80.36
2018-06-08T03:41:56.932Z,80.11
2018-06-08T03:42:56.905Z,79.98
2018-06-08T03:43:56.891Z,80.36
2018-06-08T03:44:56.877Z,81.61
2018-06-08T03:45:56.874Z,80.65
2018-06-08T03:46:56.881Z,80.65
2018-06-08T03:47:56.863Z,80.17
2018-06-08T03:48:56.870Z,80.46
2018-06-08T03:49:56.829Z,80.55
2018-06-08T03:50:56.813Z,82.38
2018-06-08T03:51:56.798Z,81.61
2018-06-08T03:52:56.809Z,81.42
2018-06-08T03:53:56.781Z,82.86
2018-06-08T03:54:56.770Z,82.67
2018-06-08T03:55:56.846Z,82.86
2018-06-08T03:56:56.754Z,82.76
2018-06-08T03:57:56.749Z,81.61
2018-06-08T03:58:56.726Z,82.48
2018-06-08T04:00:05.105Z,81.71
2018-06-08T04:00:56.723Z,81.61
2018-06-08T04:02:05.128Z,81.81
2018-06-08T04:03:04.215Z,81.71
2018-06-08T04:03:56.673Z,81.81
2018-06-08T04:04:56.661Z,82.38
2018-06-08T04:06:05.705Z,82.57
2018-06-08T04:06:56.657Z,82.96
2018-06-08T04:07:56.625Z,83.15
2018-06-08T04:08:56.609Z,81.61
2018-06-08T04:09:56.619Z,81.23
2018-06-08T04:10:56.590Z,81.52
2018-06-08T04:11:56.593Z,81.90
2018-06-08T04:12:56.574Z,81.71
2018-06-08T04:13:56.590Z,82.09
2018-06-08T04:14:56.545Z,82.29
2018-06-08T04:15:56.552Z,82.38
2018-06-08T04:16:56.536Z,81.61
2018-06-08T04:17:56.513Z,81.61
2018-06-08T04:18:56.497Z,81.32
2018-06-08T04:19:56.497Z,81.42
2018-06-08T04:20:56.478Z,81.38
2018-06-08T04:21:56.495Z,80.55
2018-06-08T04:22:56.454Z,80.36
2018-06-08T04:23:56.449Z,80.65
2018-06-08T04:24:56.459Z,80.07
2018-06-08T04:25:56.430Z,79.98
2018-06-08T04:26:56.415Z,80.07
2018-06-08T04:27:56.401Z,79.98
2018-06-08T04:28:56.388Z,79.69
2018-06-08T04:29:56.376Z,80.13
2018-06-08T04:30:56.382Z,79.88
2018-06-08T04:31:56.354Z,79.46
2018-06-08T04:32:56.403Z,80.04
2018-06-08T04:33:56.334Z,78.83
2018-06-08T04:34:56.332Z,78.92
2018-06-08T04:35:56.323Z,79.02
2018-06-08T04:36:56.300Z,78.98
2018-06-08T04:37:56.285Z,78.63
2018-06-08T04:38:56.293Z,78.73
2018-06-08T04:39:56.263Z,78.73
2018-06-08T04:40:56.253Z,80.27
2018-06-08T04:41:56.249Z,80.65
2018-06-08T04:42:56.238Z,80.65
2018-06-08T04:43:56.230Z,80.07
2018-06-08T04:44:56.213Z,79.30
2018-06-08T04:45:56.197Z,79.30
2018-06-08T04:46:56.188Z,79.11
2018-06-08T04:47:56.177Z,79.21
2018-06-08T04:48:56.175Z,79.88
2018-06-08T04:49:56.171Z,79.88
2018-06-08T04:50:56.142Z,79.98
2018-06-08T04:51:56.131Z,80.55
2018-06-08T04:52:56.120Z,79.98
2018-06-08T04:53:56.112Z,79.50
2018-06-08T04:54:56.096Z,79.50
2018-06-08T04:55:56.102Z,79.60
2018-06-08T04:56:56.077Z,78.92
2018-06-08T04:57:56.061Z,79.05
2018-06-08T04:58:56.053Z,79.05
2018-06-08T04:59:56.076Z,78.63
2018-06-08T05:00:56.034Z,78.58
2018-06-08T05:01:56.019Z,77.48
2018-06-08T05:02:56.011Z,77.48
2018-06-08T05:03:56.000Z,78.44
2018-06-08T05:04:55.986Z,78.09
2018-06-08T05:05:55.995Z,78.67
2018-06-08T05:06:55.979Z,78.25
2018-06-08T05:07:55.953Z,78.86
2018-06-08T05:08:55.938Z,79.21
2018-06-08T05:09:55.935Z,79.40
2018-06-08T05:10:55.930Z,79.25
2018-06-08T05:11:55.911Z,78.58
2018-06-08T05:12:55.917Z,78.58
2018-06-08T05:13:55.894Z,78.38
2018-06-08T05:14:55.890Z,78.67
2018-06-08T05:15:55.869Z,78.28
2018-06-08T05:16:55.855Z,79.05
2018-06-08T05:17:55.845Z,78.67
2018-06-08T05:18:55.871Z,78.58
2018-06-08T05:19:55.822Z,78.58
2018-06-08T05:20:55.811Z,78.48
2018-06-08T05:21:55.807Z,78.38
2018-06-08T05:22:55.795Z,78.38
2018-06-08T05:23:55.784Z,78.48
2018-06-08T05:24:55.787Z,78.19
2018-06-08T05:25:55.781Z,78.19
2018-06-08T05:26:55.749Z,78.38
2018-06-08T05:27:55.737Z,77.61
2018-06-08T05:28:55.730Z,77.61
2018-06-08T05:29:55.734Z,78.19
2018-06-08T05:30:55.702Z,78.48
2018-06-08T05:31:55.692Z,78.96
2018-06-08T05:32:55.683Z,77.61
2018-06-08T05:33:55.673Z,78.00
2018-06-08T05:34:55.674Z,78.58
2018-06-08T05:35:55.649Z,79.35
2018-06-08T05:36:55.642Z,80.50
2018-06-08T05:37:55.627Z,80.69
2018-06-08T05:38:55.621Z,80.88
2018-06-08T05:39:55.624Z,80.21
2018-06-08T05:40:55.598Z,80.30
2018-06-08T05:41:55.607Z,79.63
2018-06-08T05:42:55.579Z,79.73
2018-06-08T05:43:55.563Z,80.69
2018-06-08T05:44:55.555Z,80.50
2018-06-08T05:45:55.547Z,80.69
2018-06-08T05:46:55.549Z,80.30
2018-06-08T05:47:55.517Z,79.82
2018-06-08T05:48:55.514Z,79.35
2018-06-08T05:49:55.499Z,79.10
2018-06-08T05:50:55.490Z,77.65
2018-06-08T05:51:55.497Z,79.00
2018-06-08T05:52:55.473Z,80.73
2018-06-08T05:53:55.479Z,79.86
2018-06-08T05:54:55.451Z,80.35
2018-06-08T05:55:55.439Z,79.28
2018-06-08T05:56:55.446Z,79.77
2018-06-08T05:57:55.418Z,80.35
2018-06-08T05:58:55.402Z,82.75
2018-06-08T05:59:55.403Z,82.75
2018-06-08T06:00:55.381Z,81.60
2018-06-08T06:01:55.377Z,82.37
2018-06-08T06:02:55.384Z,83.23
2018-06-08T06:03:55.352Z,83.42
2018-06-08T06:04:55.345Z,82.17
2018-06-08T06:05:55.337Z,82.56
2018-06-08T06:06:55.348Z,81.06
2018-06-08T06:07:55.314Z,82.65
2018-06-08T06:08:55.301Z,83.23
2018-06-08T06:09:55.291Z,83.62
2018-06-08T06:10:55.282Z,82.65
2018-06-08T06:11:55.270Z,82.46
2018-06-08T06:12:55.277Z,82.41
2018-06-08T06:13:55.254Z,84.43
2018-06-08T06:14:55.280Z,82.98
2018-06-08T06:15:55.233Z,83.47
2018-06-08T06:16:55.235Z,86.16
2018-06-08T06:17:55.221Z,83.28
2018-06-08T06:18:55.197Z,82.70
2018-06-08T06:19:55.207Z,83.85
2018-06-08T06:20:55.198Z,84.33
2018-06-08T06:21:55.184Z,86.26
2018-06-08T06:22:55.168Z,87.90
2018-06-08T06:23:55.148Z,83.85
2018-06-08T06:24:55.155Z,85.49
2018-06-08T06:25:55.129Z,85.78
2018-06-08T06:26:55.114Z,85.49
2018-06-08T06:27:55.119Z,87.22
2018-06-08T06:28:55.098Z,90.11
2018-06-08T06:29:55.087Z,87.65
2018-06-08T06:30:55.116Z,87.46
2018-06-08T06:31:55.069Z,89.19
2018-06-08T06:32:55.058Z,88.90
2018-06-08T06:33:55.048Z,88.81
2018-06-08T06:34:55.037Z,86.59
2018-06-08T06:35:55.025Z,85.63
2018-06-08T06:36:55.032Z,85.05
2018-06-08T06:37:55.018Z,85.63
2018-06-08T06:38:55.012Z,83.89
2018-06-08T06:39:54.984Z,82.64
2018-06-08T06:40:54.984Z,88.23
2018-06-08T06:41:54.970Z,87.07
2018-06-08T06:42:54.959Z,87.94
2018-06-08T06:43:54.972Z,87.55
2018-06-08T06:44:54.969Z,86.49
2018-06-08T06:45:54.929Z,86.21
2018-06-08T06:46:54.913Z,87.46
2018-06-08T06:47:54.920Z,89.00
2018-06-08T06:48:54.900Z,91.31
2018-06-08T06:49:54.908Z,87.36
2018-06-08T06:50:54.877Z,88.32
2018-06-08T06:51:54.868Z,89.58
2018-06-08T06:52:54.856Z,88.13
2018-06-08T06:53:54.867Z,88.13
2018-06-08T06:54:54.839Z,88.71
2018-06-08T06:55:54.827Z,89.82
2018-06-08T06:56:54.821Z,87.55
2018-06-08T06:57:54.810Z,91.41
2018-06-08T06:58:54.811Z,87.84
2018-06-08T06:59:54.799Z,87.94
2018-06-08T07:00:54.776Z,87.74
2018-06-08T07:01:54.771Z,85.24
2018-06-08T07:02:54.761Z,85.34
2018-06-08T07:03:54.748Z,88.61
2018-06-08T07:04:54.738Z,89.48
2018-06-08T07:05:54.743Z,89.39
2018-06-08T07:06:54.716Z,87.46
2018-06-08T07:07:54.707Z,90.44
2018-06-08T07:08:54.694Z,91.60
2018-06-08T07:09:54.688Z,90.83
2018-06-08T07:10:54.694Z,87.65
2018-06-08T07:11:54.663Z,88.23
2018-06-08T07:12:54.659Z,87.26
2018-06-08T07:13:54.644Z,87.74
2018-06-08T07:14:54.636Z,89.00
2018-06-08T07:15:54.642Z,88.32
2018-06-08T07:16:54.618Z,90.25
2018-06-08T07:17:54.611Z,90.92
2018-06-08T07:18:54.596Z,89.48
2018-06-08T07:19:54.587Z,89.86
2018-06-08T07:20:54.590Z,89.09
2018-06-08T07:21:54.572Z,89.67
2018-06-08T07:22:54.553Z,91.45
2018-06-08T07:23:54.545Z,86.59
2018-06-08T07:24:54.540Z,90.83
2018-06-08T07:25:54.531Z,90.73
2018-06-08T07:26:54.536Z,89.39
2018-06-08T07:27:54.505Z,90.06
2018-06-08T07:28:54.513Z,90.16
2018-06-08T07:29:54.491Z,88.81
2018-06-08T07:30:54.477Z,89.96
2018-06-08T07:31:54.490Z,89.96
2018-06-08T07:32:54.461Z,90.34
2018-06-08T07:33:54.464Z,88.04
2018-06-08T07:34:54.433Z,88.23
2018-06-08T07:35:54.431Z,87.84
2018-06-08T07:36:54.431Z,85.43
2018-06-08T07:37:54.410Z,88.13
2018-06-08T07:38:54.415Z,88.13
2018-06-08T07:39:54.425Z,88.71
2018-06-08T07:40:54.378Z,87.94
2018-06-08T07:41:54.391Z,86.98
2018-06-08T07:42:54.360Z,87.26
2018-06-08T07:43:54.346Z,89.86
2018-06-08T07:44:54.340Z,88.23
2018-06-08T07:45:54.323Z,86.40
2018-06-08T07:46:54.317Z,86.21
2018-06-08T07:47:54.324Z,84.47
2018-06-08T07:48:54.295Z,83.70
2018-06-08T07:49:54.284Z,84.47
2018-06-08T07:50:54.276Z,83.75
2018-06-08T07:51:54.265Z,83.56
2018-06-08T07:52:54.254Z,81.83
2018-06-08T07:53:54.263Z,81.06
2018-06-08T07:54:54.232Z,80.29
2018-06-08T07:55:54.247Z,80.00
2018-06-08T07:56:54.213Z,80.19
2018-06-08T07:57:54.201Z,79.33
2018-06-08T07:58:54.194Z,81.73
2018-06-08T07:59:54.198Z,83.08
2018-06-08T08:00:54.172Z,82.06
2018-06-08T08:02:15.175Z,82.26
2018-06-08T08:02:54.156Z,82.35
2018-06-08T08:03:54.162Z,81.87
2018-06-08T08:04:54.146Z,80.43
2018-06-08T08:05:54.124Z,83.31
2018-06-08T08:06:54.110Z,80.62
2018-06-08T08:07:54.104Z,80.62
2018-06-08T08:08:54.091Z,79.08
2018-06-08T08:10:15.091Z,79.17
2018-06-08T08:10:54.072Z,78.98
2018-06-08T08:11:54.075Z,79.46
2018-06-08T08:12:54.049Z,79.36
2018-06-08T08:13:54.098Z,81.77
2018-06-08T08:14:54.030Z,81.01
2018-06-08T08:15:54.019Z,80.14
2018-06-08T08:16:54.010Z,80.33
2018-06-08T08:17:54.017Z,82.35
2018-06-08T08:18:53.992Z,83.41
2018-06-08T08:19:53.986Z,81.87
2018-06-08T08:20:53.990Z,81.58
2018-06-08T08:21:53.962Z,81.29
2018-06-08T08:22:53.950Z,83.80
2018-06-08T08:23:53.939Z,82.98
2018-06-08T08:24:53.940Z,83.66
2018-06-08T08:25:53.921Z,82.41
2018-06-08T08:26:53.923Z,82.41
2018-06-08T08:27:53.896Z,83.08
2018-06-08T08:28:53.892Z,82.94
2018-06-08T08:29:53.880Z,82.08
2018-06-08T08:30:53.884Z,80.68
2018-06-08T08:31:53.871Z,81.45
2018-06-08T08:32:53.849Z,82.94
2018-06-08T08:33:53.856Z,80.44
2018-06-08T08:34:53.831Z,79.86
2018-06-08T08:35:53.818Z,79.19
2018-06-08T08:36:53.808Z,78.71
2018-06-08T08:37:53.799Z,79.86
2018-06-08T08:38:53.788Z,79.10
2018-06-08T08:39:53.792Z,79.28
2018-06-08T08:40:53.767Z,79.58
2018-06-08T08:41:53.759Z,78.71
2018-06-08T08:42:53.748Z,78.61
2018-06-08T08:43:53.747Z,77.46
2018-06-08T08:44:53.727Z,77.46
2018-06-08T08:45:53.731Z,78.23
2018-06-08T08:46:53.723Z,77.46
2018-06-08T08:47:53.714Z,77.46
2018-06-08T08:48:53.701Z,76.88
2018-06-08T08:49:53.674Z,76.59
2018-06-08T08:50:53.660Z,76.50
2018-06-08T08:51:53.665Z,76.50
2018-06-08T08:52:53.642Z,76.59
2018-06-08T08:53:53.653Z,75.73
2018-06-08T08:54:53.621Z,75.44
2018-06-08T08:55:53.609Z,75.24
2018-06-08T08:56:53.702Z,75.24
2018-06-08T08:57:53.595Z,75.73
2018-06-08T08:58:53.595Z,75.63
2018-06-08T08:59:53.570Z,75.44
2018-06-08T09:00:53.553Z,75.82
2018-06-08T09:01:53.546Z,75.82
2018-06-08T09:02:53.552Z,76.01
2018-06-08T09:03:53.565Z,75.73
2018-06-08T09:04:53.521Z,75.54
2018-06-08T09:05:53.505Z,75.34
2018-06-08T09:06:53.494Z,74.86
2018-06-08T09:07:53.498Z,74.96
2018-06-08T09:08:53.474Z,74.76
2018-06-08T09:09:53.483Z,75.15
2018-06-08T09:10:53.456Z,75.24
2018-06-08T09:11:53.439Z,75.05
2018-06-08T09:12:53.445Z,75.15
2018-06-08T09:14:14.434Z,74.67
2018-06-08T09:14:53.413Z,74.86
2018-06-08T09:15:53.401Z,74.67
2018-06-08T09:16:53.394Z,74.67
2018-06-08T09:17:53.378Z,74.96
2018-06-08T09:18:53.388Z,74.38
2018-06-08T09:19:53.357Z,74.38
2018-06-08T09:20:53.348Z,74.86
2018-06-08T09:21:53.341Z,74.38
2018-06-08T09:22:53.343Z,74.76
2018-06-08T09:23:53.318Z,74.63
2018-06-08T09:24:53.305Z,74.29
2018-06-08T09:25:53.300Z,74.67
2018-06-08T09:26:53.289Z,74.67
2018-06-08T09:27:53.297Z,74.48
2018-06-08T09:28:53.264Z,74.48
2018-06-08T09:29:53.255Z,74.29
2018-06-08T09:30:53.259Z,74.38
2018-06-08T09:31:53.260Z,74.92
2018-06-08T09:32:53.221Z,74.57
2018-06-08T09:33:53.210Z,75.02
2018-06-08T09:34:53.240Z,75.49
2018-06-08T09:35:53.188Z,74.54
2018-06-08T09:36:53.195Z,74.63
2018-06-08T09:37:53.169Z,74.34
2018-06-08T09:38:53.162Z,74.73
2018-06-08T09:39:53.173Z,75.11
2018-06-08T09:40:53.137Z,74.63
2018-06-08T09:42:14.142Z,74.54
2018-06-08T09:42:53.121Z,74.44
2018-06-08T09:43:53.101Z,74.15
2018-06-08T09:44:53.131Z,73.96
2018-06-08T09:45:53.146Z,73.77
2018-06-08T09:46:53.459Z,73.67
2018-06-08T09:47:53.060Z,74.15
2018-06-08T09:48:53.060Z,74.05
2018-06-08T09:49:53.038Z,74.05
2018-06-08T09:50:53.035Z,74.34
2018-06-08T09:51:53.019Z,74.44
2018-06-08T09:52:53.023Z,74.05
2018-06-08T09:53:53.003Z,74.34
2018-06-08T09:54:52.988Z,73.67
2018-06-08T09:55:52.988Z,73.77
2018-06-08T09:56:52.962Z,73.61
2018-06-08T09:57:52.997Z,73.03
2018-06-08T09:58:52.943Z,73.61
2018-06-08T09:59:52.930Z,73.42
2018-06-08T10:00:52.930Z,73.32
2018-06-08T10:01:52.914Z,73.61
2018-06-08T10:02:52.901Z,73.61
2018-06-08T10:03:52.905Z,73.61
2018-06-08T10:04:52.878Z,73.42
2018-06-08T10:05:52.866Z,73.61
2018-06-08T10:06:52.872Z,73.13
2018-06-08T10:07:52.862Z,73.61
2018-06-08T10:08:52.853Z,73.51
2018-06-08T10:09:52.828Z,72.84
2018-06-08T10:10:52.814Z,73.22
2018-06-08T10:11:52.798Z,73.22
2018-06-08T10:12:52.794Z,73.22
2018-06-08T10:13:52.784Z,72.94
2018-06-08T10:14:52.791Z,72.74
2018-06-08T10:15:52.761Z,73.32
2018-06-08T10:16:52.761Z,73.51
2018-06-08T10:17:52.739Z,73.38
2018-06-08T10:18:52.730Z,73.19
2018-06-08T10:19:52.718Z,73.47
2018-06-08T10:20:52.725Z,72.90
2018-06-08T10:21:52.698Z,73.28
2018-06-08T10:22:52.687Z,72.71
2018-06-08T10:23:52.698Z,73.28
2018-06-08T10:24:52.670Z,73.28
2018-06-08T10:25:52.673Z,73.28
2018-06-08T10:26:52.645Z,72.80
2018-06-08T10:27:52.635Z,73.77
2018-06-08T10:28:52.640Z,73.38
2018-06-08T10:29:52.614Z,73.47
2018-06-08T10:30:52.616Z,72.42
2018-06-08T10:31:52.590Z,72.71
2018-06-08T10:32:52.595Z,72.90
2018-06-08T10:33:52.568Z,73.47
2018-06-08T10:34:52.559Z,73.09
2018-06-08T10:35:52.546Z,72.71
2018-06-08T10:36:52.538Z,72.90
2018-06-08T10:37:52.549Z,73.19
2018-06-08T10:38:52.517Z,73.47
2018-06-08T10:39:52.546Z,72.80
2018-06-08T10:40:52.509Z,72.61
2018-06-08T10:41:52.487Z,72.45
2018-06-08T10:42:52.469Z,71.97
2018-06-08T10:43:52.462Z,72.94
2018-06-08T10:44:52.464Z,72.84
2018-06-08T10:45:52.457Z,72.61
2018-06-08T10:46:52.426Z,72.52
2018-06-08T10:47:52.419Z,72.03
2018-06-08T10:48:52.404Z,72.90
2018-06-08T10:49:52.398Z,72.36
2018-06-08T10:50:52.402Z,72.26
2018-06-08T10:51:52.370Z,72.45
2018-06-08T10:52:52.368Z,72.26
2018-06-08T10:53:52.355Z,72.36
2018-06-08T10:54:52.346Z,71.69
2018-06-08T10:55:52.346Z,71.59
2018-06-08T10:56:52.322Z,71.97
2018-06-08T10:57:52.310Z,71.78
2018-06-08T10:58:52.301Z,71.78
2018-06-08T10:59:52.291Z,72.45
2018-06-08T11:00:52.294Z,72.74
2018-06-08T11:01:52.267Z,72.84
2018-06-08T11:02:52.257Z,72.45
2018-06-08T11:03:52.248Z,72.65
2018-06-08T11:04:52.239Z,72.45
2018-06-08T11:05:52.229Z,73.42
2018-06-08T11:06:52.231Z,72.17
2018-06-08T11:07:52.203Z,72.26
2018-06-08T11:08:52.195Z,71.78
2018-06-08T11:09:52.178Z,71.69
2018-06-08T11:10:52.169Z,72.36
2018-06-08T11:11:52.173Z,71.69
2018-06-08T11:12:52.148Z,71.69
2018-06-08T11:13:52.138Z,71.30
2018-06-08T11:14:52.127Z,72.36
2018-06-08T11:15:52.123Z,74.57
2018-06-08T11:16:52.129Z,73.51
2018-06-08T11:17:52.114Z,73.42
2018-06-08T11:18:52.107Z,74.09
2018-06-08T11:19:52.097Z,73.99
2018-06-08T11:20:52.068Z,73.71
2018-06-08T11:21:52.054Z,73.65
2018-06-08T11:22:52.059Z,72.88
2018-06-08T11:23:52.059Z,74.13
2018-06-08T11:24:52.050Z,73.26
2018-06-08T11:25:52.015Z,73.65
2018-06-08T11:26:52.011Z,75.57
2018-06-08T11:27:51.995Z,77.50
2018-06-08T11:28:51.986Z,77.59
2018-06-08T11:29:52.000Z,75.57
2018-06-08T11:30:51.970Z,74.51
2018-06-08T11:31:51.958Z,76.06
2018-06-08T11:32:51.944Z,75.51
2018-06-08T11:33:51.939Z,75.61
2018-06-08T11:34:51.929Z,78.17
2018-06-08T11:35:51.934Z,75.42
2018-06-08T11:36:51.910Z,74.36
2018-06-08T11:37:51.895Z,73.97
2018-06-08T11:38:51.887Z,73.68
2018-06-08T11:39:51.872Z,74.30
2018-06-08T11:40:51.879Z,78.34
2018-06-08T11:41:51.853Z,78.92
2018-06-08T11:42:51.846Z,78.54
2018-06-08T11:43:51.840Z,78.73
2018-06-08T11:44:51.830Z,81.33
2018-06-08T11:45:51.842Z,79.02
2018-06-08T11:46:51.821Z,81.14
2018-06-08T11:47:51.801Z,79.11
2018-06-08T11:48:51.789Z,80.46
2018-06-08T11:49:51.782Z,83.45
2018-06-08T11:50:51.786Z,80.56
2018-06-08T11:51:51.760Z,81.81
2018-06-08T11:52:51.764Z,83.94
2018-06-08T11:53:51.742Z,81.81
2018-06-08T11:54:51.729Z,81.72
2018-06-08T11:55:51.731Z,80.66
2018-06-08T11:56:51.716Z,79.98
2018-06-08T11:57:51.709Z,80.76
2018-06-08T11:58:51.709Z,81.43
2018-06-08T11:59:51.684Z,78.25
2018-06-08T12:00:51.677Z,80.27
2018-06-08T12:01:51.774Z,82.78
2018-06-08T12:02:51.654Z,82.87
2018-06-08T12:03:51.654Z,82.20
2018-06-08T12:04:51.654Z,81.33
2018-06-08T12:05:51.641Z,81.33
2018-06-08T12:06:51.639Z,81.33
2018-06-08T12:07:51.608Z,81.52
2018-06-08T12:08:51.605Z,82.20
2018-06-08T12:09:51.591Z,81.04
2018-06-08T12:10:51.598Z,80.27
2018-06-08T12:11:51.633Z,81.52
2018-06-08T12:12:51.565Z,81.43
2018-06-08T12:13:51.557Z,82.29
2018-06-08T12:14:51.547Z,80.66
2018-06-08T12:15:51.536Z,78.54
2018-06-08T12:16:51.542Z,78.86
2018-06-08T12:17:51.514Z,79.35
2018-06-08T12:18:51.520Z,82.24
2018-06-08T12:19:51.498Z,82.14
2018-06-08T12:20:51.492Z,82.43
2018-06-08T12:21:51.496Z,82.43
2018-06-08T12:22:51.482Z,78.58
2018-06-08T12:23:51.494Z,80.89
2018-06-08T12:24:51.452Z,82.34
2018-06-08T12:25:51.444Z,84.55
2018-06-08T12:26:51.437Z,83.40
2018-06-08T12:27:51.569Z,82.09
2018-06-08T12:28:51.426Z,82.18
2018-06-08T12:29:51.406Z,81.80
2018-06-08T12:30:51.394Z,83.73
2018-06-08T12:31:51.387Z,85.37
2018-06-08T12:32:51.394Z,81.84
2018-06-08T12:33:51.374Z,81.65
2018-06-08T12:34:51.368Z,83.00
2018-06-08T12:35:51.360Z,83.14
2018-06-08T12:36:51.355Z,83.23
2018-06-08T12:37:51.349Z,86.71
2018-06-08T12:38:51.338Z,86.17
2018-06-08T12:39:51.314Z,90.91
2018-06-08T12:40:51.309Z,91.09
2018-06-08T12:41:51.302Z,91.25
2018-06-08T12:42:51.292Z,90.86
2018-06-08T12:43:51.291Z,89.55
2018-06-08T12:44:52.285Z,92.41
2018-06-08T12:45:51.271Z,89.79
2018-06-08T12:46:51.272Z,87.81
2018-06-08T12:47:51.254Z,91.39
2018-06-08T12:48:51.308Z,92.55
2018-06-08T12:49:51.233Z,89.41
2018-06-08T12:50:51.244Z,85.40
2018-06-08T12:51:51.216Z,93.51
2018-06-08T12:52:51.210Z,91.49